< < Back
Terminal Aerodrome Forecast


Current Version              Previous Versions:   1  2  3  4  5  6  7  8  9  

Terminal Aerodrome Forecast

042
FTUS44 KOHX 290300 AAB
TAFCSV
TAF AMD
KCSV 290334Z 2904/2924 VRB05KT P6SM SCT015 BKN100 BKN250
      TEMPO 2910/2913 4SM BR BKN010 BKN250
     FM291400 18004KT P6SM BKN030 BKN250
     FM291900 19005KT P6SM VCTS BKN050CB BKN100 BKN250=

Latest METAR

740
SAUS70 KWBC 290400 RRG
MTRCSV
METAR KCSV 290353Z AUTO 17004KT 10SM OVC110 20/17 A3024 RMK AO2 SLP224
T02000167


USA.gov is the U.S. government's official web portal to all federal, state and local government web resources and services.